createdAt,value
2018-07-15T00:01:42.745Z,101229.03
2018-07-15T00:04:08.297Z,101230.85
2018-07-15T00:06:33.835Z,101228.16
2018-07-15T00:08:59.385Z,101231.00
2018-07-15T00:11:24.945Z,101231.34
2018-07-15T00:13:50.487Z,101225.25
2018-07-15T00:16:16.026Z,101226.41
2018-07-15T00:18:41.578Z,101220.70
2018-07-15T00:21:07.109Z,101220.44
2018-07-15T00:23:32.640Z,101220.73
2018-07-15T00:25:58.172Z,101218.50
2018-07-15T00:28:23.744Z,101223.23
2018-07-15T00:30:49.300Z,101220.58
2018-07-15T00:33:14.847Z,101228.30
2018-07-15T00:35:40.390Z,101224.66
2018-07-15T00:38:05.927Z,101228.28
2018-07-15T00:40:31.540Z,101224.23
2018-07-15T00:42:57.080Z,101228.34
2018-07-15T00:45:22.670Z,101223.87
2018-07-15T00:47:48.217Z,101222.39
2018-07-15T00:50:13.766Z,101224.69
2018-07-15T00:52:39.306Z,101225.16
2018-07-15T00:55:04.857Z,101219.47
2018-07-15T00:57:30.395Z,101219.31
2018-07-15T00:59:55.947Z,101210.73
2018-07-15T01:02:21.493Z,101210.23
2018-07-15T01:04:47.036Z,101212.97
2018-07-15T01:07:12.572Z,101211.34
2018-07-15T01:09:38.124Z,101212.43
2018-07-15T01:12:03.679Z,101212.94
2018-07-15T01:14:29.224Z,101209.67
2018-07-15T01:16:54.801Z,101203.12
2018-07-15T01:19:20.335Z,101206.77
2018-07-15T01:21:45.870Z,101204.75
2018-07-15T01:24:11.418Z,101204.88
2018-07-15T01:26:36.965Z,101199.78
2018-07-15T01:29:02.526Z,101203.38
2018-07-15T01:31:28.064Z,101203.30
2018-07-15T01:33:53.620Z,101202.52
2018-07-15T01:36:19.176Z,101200.73
2018-07-15T01:38:44.716Z,101205.95
2018-07-15T01:41:10.299Z,101198.98
2018-07-15T01:43:35.840Z,101207.45
2018-07-15T01:46:01.381Z,101206.16
2018-07-15T01:48:26.944Z,101203.59
2018-07-15T01:50:52.485Z,101203.76
2018-07-15T01:53:18.026Z,101200.65
2018-07-15T01:55:43.572Z,101200.98
2018-07-15T01:58:09.104Z,101196.80
2018-07-15T02:00:34.647Z,101195.77
2018-07-15T02:03:00.216Z,101197.00
2018-07-15T02:05:25.752Z,101193.06
2018-07-15T02:07:51.291Z,101196.63
2018-07-15T02:10:16.885Z,101189.25
2018-07-15T02:12:42.432Z,101187.80
2018-07-15T02:15:07.976Z,101190.65
2018-07-15T02:17:33.516Z,101192.39
2018-07-15T02:19:59.064Z,101191.44
2018-07-15T02:22:24.608Z,101192.64
2018-07-15T02:24:50.144Z,101191.69
2018-07-15T02:27:15.714Z,101192.97
2018-07-15T02:29:41.269Z,101188.91
2018-07-15T02:32:06.809Z,101192.05
2018-07-15T02:34:32.346Z,101196.55
2018-07-15T02:36:57.882Z,101195.27
2018-07-15T02:39:23.421Z,101196.09
2018-07-15T02:41:48.956Z,101200.81
2018-07-15T02:44:14.503Z,101196.88
2018-07-15T02:46:40.041Z,101198.16
2018-07-15T02:49:05.592Z,101192.98
2018-07-15T02:51:31.124Z,101200.43
2018-07-15T02:53:56.668Z,101200.05
2018-07-15T02:56:22.209Z,101194.02
2018-07-15T02:58:47.753Z,101194.29
2018-07-15T03:01:13.295Z,101197.73
2018-07-15T03:03:38.856Z,101196.55
2018-07-15T03:06:04.409Z,101188.27
2018-07-15T03:08:29.949Z,101183.95
2018-07-15T03:10:55.486Z,101182.27
2018-07-15T03:13:21.036Z,101182.67
2018-07-15T03:15:46.576Z,101186.30
2018-07-15T03:18:12.113Z,101182.20
2018-07-15T03:20:37.712Z,101190.63
2018-07-15T03:23:03.259Z,101192.11
2018-07-15T03:25:28.797Z,101187.04
2018-07-15T03:27:54.345Z,101187.55
2018-07-15T03:30:19.883Z,101186.50
2018-07-15T03:32:45.436Z,101184.02
2018-07-15T03:35:10.968Z,101184.16
2018-07-15T03:37:36.524Z,101190.98
2018-07-15T03:40:02.066Z,101184.48
2018-07-15T03:42:27.635Z,101187.55
2018-07-15T03:44:53.173Z,101173.13
2018-07-15T03:47:18.706Z,101176.02
2018-07-15T03:49:44.246Z,101176.57
2018-07-15T03:52:09.779Z,101174.50
2018-07-15T03:54:35.348Z,101174.09
2018-07-15T03:57:00.885Z,101174.88
2018-07-15T03:59:26.421Z,101172.81
2018-07-15T04:01:51.966Z,101173.69
2018-07-15T04:04:17.522Z,101167.13
2018-07-15T04:06:43.089Z,101162.55
2018-07-15T04:09:08.629Z,101167.36
2018-07-15T04:11:34.165Z,101158.80
2018-07-15T04:13:59.700Z,101156.60
2018-07-15T04:16:25.239Z,101160.62
2018-07-15T04:18:50.796Z,101159.34
2018-07-15T04:21:16.332Z,101162.78
2018-07-15T04:23:41.881Z,101161.50
2018-07-15T04:26:07.412Z,101164.78
2018-07-15T04:28:32.949Z,101164.38
2018-07-15T04:30:58.484Z,101170.14
2018-07-15T04:33:24.034Z,101165.00
2018-07-15T04:35:49.587Z,101169.08
2018-07-15T04:38:15.152Z,101166.36
2018-07-15T04:40:40.703Z,101162.19
2018-07-15T04:43:06.239Z,101165.22
2018-07-15T04:45:31.793Z,101167.45
2018-07-15T04:47:57.332Z,101167.22
2018-07-15T04:50:22.883Z,101160.06
2018-07-15T04:52:49.016Z,101163.75
2018-07-15T04:55:14.561Z,101162.23
2018-07-15T04:57:40.112Z,101164.84
2018-07-15T05:00:05.667Z,101167.16
2018-07-15T05:02:31.217Z,101168.20
2018-07-15T05:04:56.783Z,101166.73
2018-07-15T05:07:22.328Z,101164.24
2018-07-15T05:09:51.500Z,101166.16
2018-07-15T05:12:17.315Z,101169.02
2018-07-15T05:14:43.260Z,101166.83
2018-07-15T05:17:09.562Z,101166.71
2018-07-15T05:19:35.392Z,101173.30
2018-07-15T05:22:01.269Z,101171.39
2018-07-15T05:24:27.857Z,101170.89
2018-07-15T05:26:53.870Z,101168.07
2018-07-15T05:29:19.865Z,101168.74
2018-07-15T05:31:45.703Z,101169.98
2018-07-15T05:34:11.236Z,101172.78
2018-07-15T05:36:36.785Z,101169.78
2018-07-15T05:39:02.325Z,101171.34
2018-07-15T05:41:27.872Z,101173.25
2018-07-15T05:43:53.426Z,101168.77
2018-07-15T05:46:18.981Z,101178.05
2018-07-15T05:48:44.540Z,101172.13
2018-07-15T05:51:13.458Z,101181.85
2018-07-15T05:53:39.646Z,101183.34
2018-07-15T05:56:05.940Z,101182.32
2018-07-15T05:58:32.044Z,101185.65
2018-07-15T06:00:57.740Z,101182.86
2018-07-15T06:03:24.829Z,101188.88
2018-07-15T06:05:50.750Z,101181.75
2018-07-15T06:08:20.931Z,101182.34
2018-07-15T06:15:51.038Z,101187.20
2018-07-15T06:18:16.661Z,101187.59
2018-07-15T06:20:42.283Z,101179.75
2018-07-15T06:23:07.846Z,101181.19
2018-07-15T06:25:33.397Z,101184.83
2018-07-15T06:27:58.956Z,101184.36
2018-07-15T06:30:24.541Z,101180.53
2018-07-15T06:32:50.097Z,101182.25
2018-07-15T06:35:15.658Z,101181.67
2018-07-15T06:37:41.213Z,101174.73
2018-07-15T06:40:07.661Z,101175.05
2018-07-15T06:42:33.301Z,101173.27
2018-07-15T06:44:58.857Z,101174.06
2018-07-15T06:47:27.222Z,101173.05
2018-07-15T06:49:52.976Z,101172.59
2018-07-15T06:52:18.515Z,101166.56
2018-07-15T06:54:44.059Z,101167.78
2018-07-15T06:57:09.729Z,101172.94
2018-07-15T06:59:35.605Z,101173.70
2018-07-15T07:02:01.788Z,101173.11
2018-07-15T07:04:29.325Z,101168.34
2018-07-15T07:06:55.145Z,101162.31
2018-07-15T07:09:21.242Z,101165.61
2018-07-15T07:11:46.922Z,101165.98
2018-07-15T07:14:12.546Z,101164.61
2018-07-15T07:16:38.044Z,101167.50
2018-07-15T07:19:03.596Z,101158.41
2018-07-15T07:21:29.572Z,101156.91
2018-07-15T07:23:55.842Z,101159.94
2018-07-15T07:26:22.493Z,101160.27
2018-07-15T07:28:48.571Z,101160.28
2018-07-15T07:31:14.325Z,101157.20
2018-07-15T07:33:39.943Z,101163.11
2018-07-15T07:36:05.840Z,101154.35
2018-07-15T07:38:32.032Z,101158.91
2018-07-15T07:40:57.887Z,101162.56
2018-07-15T07:43:23.420Z,101162.37
2018-07-15T07:45:48.963Z,101165.59
2018-07-15T07:48:14.524Z,101158.39
2018-07-15T07:50:40.063Z,101162.52
2018-07-15T07:53:05.596Z,101164.85
2018-07-15T07:55:34.164Z,101165.99
2018-07-15T07:58:03.383Z,101164.34
2018-07-15T08:00:29.292Z,101165.42
2018-07-15T08:02:54.844Z,101164.78
2018-07-15T08:05:20.398Z,101159.79
2018-07-15T08:07:46.179Z,101172.37
2018-07-15T08:10:11.700Z,101169.95
2018-07-15T08:12:37.246Z,101169.68
2018-07-15T08:15:02.796Z,101172.48
2018-07-15T08:17:28.364Z,101163.50
2018-07-15T08:19:53.930Z,101164.52
2018-07-15T08:22:19.472Z,101163.27
2018-07-15T08:24:45.989Z,101153.88
2018-07-15T08:27:11.538Z,101160.59
2018-07-15T08:29:37.216Z,101153.38
2018-07-15T08:32:04.482Z,101150.88
2018-07-15T08:34:33.617Z,101154.11
2018-07-15T08:36:59.527Z,101152.08
2018-07-15T08:39:25.118Z,101153.88
2018-07-15T08:41:50.656Z,101151.84
2018-07-15T08:44:16.305Z,101149.30
2018-07-15T08:46:41.878Z,101147.73
2018-07-15T08:49:07.416Z,101153.05
2018-07-15T08:51:32.964Z,101150.05
2018-07-15T08:53:58.506Z,101154.06
2018-07-15T08:56:24.167Z,101150.74
2018-07-15T08:58:49.705Z,101151.69
2018-07-15T09:01:15.245Z,101143.53
2018-07-15T09:03:40.805Z,101149.27
2018-07-15T09:06:06.340Z,101145.45
2018-07-15T09:08:31.903Z,101150.73
2018-07-15T09:10:57.475Z,101149.45
2018-07-15T09:13:23.007Z,101148.62
2018-07-15T09:15:48.555Z,101150.38
2018-07-15T09:18:14.104Z,101145.19
2018-07-15T09:20:39.765Z,101144.39
2018-07-15T09:23:05.663Z,101141.38
2018-07-15T09:25:31.225Z,101141.00
2018-07-15T09:27:56.855Z,101143.34
2018-07-15T09:30:22.486Z,101144.33
2018-07-15T09:32:48.052Z,101140.92
2018-07-15T09:35:13.597Z,101132.19
2018-07-15T09:37:39.166Z,101132.28
2018-07-15T09:40:04.740Z,101126.70
2018-07-15T09:42:30.302Z,101129.78
2018-07-15T09:44:55.852Z,101137.25
2018-07-15T09:47:21.402Z,101139.05
2018-07-15T09:49:46.951Z,101132.13
2018-07-15T09:52:12.634Z,101135.20
2018-07-15T09:54:38.196Z,101128.61
2018-07-15T09:57:03.740Z,101127.38
2018-07-15T09:59:29.292Z,101127.89
2018-07-15T10:01:54.827Z,101128.02
2018-07-15T10:04:20.392Z,101117.61
2018-07-15T10:06:45.941Z,101116.44
2018-07-15T10:09:11.484Z,101115.63
2018-07-15T10:11:37.069Z,101121.80
2018-07-15T10:14:02.612Z,101118.34
2018-07-15T10:16:28.158Z,101118.37
2018-07-15T10:18:53.778Z,101108.37
2018-07-15T10:21:19.268Z,101117.07
2018-07-15T10:23:44.801Z,101112.78
2018-07-15T10:26:10.378Z,101115.42
2018-07-15T10:28:35.915Z,101114.59
2018-07-15T10:31:01.460Z,101106.73
2018-07-15T10:33:27.020Z,101108.03
2018-07-15T10:35:52.600Z,101111.56
2018-07-15T10:38:18.181Z,101105.50
2018-07-15T10:40:43.728Z,101097.23
2018-07-15T10:43:09.278Z,101092.90
2018-07-15T10:45:34.833Z,101099.42
2018-07-15T10:48:00.407Z,101097.70
2018-07-15T10:50:26.268Z,101088.99
2018-07-15T10:52:51.852Z,101087.25
2018-07-15T10:55:17.385Z,101087.72
2018-07-15T10:57:42.941Z,101085.10
2018-07-15T11:00:08.559Z,101081.20
2018-07-15T11:02:34.119Z,101075.09
2018-07-15T11:04:59.693Z,101068.97
2018-07-15T11:07:25.236Z,101065.92
2018-07-15T11:09:50.780Z,101069.41
2018-07-15T11:12:16.361Z,101068.09
2018-07-15T11:14:41.955Z,101065.48
2018-07-15T11:17:07.513Z,101065.86
2018-07-15T11:19:33.061Z,101068.95
2018-07-15T11:21:58.595Z,101065.89
2018-07-15T11:24:24.188Z,101058.88
2018-07-15T11:26:49.720Z,101055.80
2018-07-15T11:29:15.277Z,101060.16
2018-07-15T11:31:40.948Z,101054.03
2018-07-15T11:34:06.509Z,101050.52
2018-07-15T11:36:32.744Z,101055.34
2018-07-15T11:38:58.335Z,101050.54
2018-07-15T11:41:23.870Z,101055.73
2018-07-15T11:43:49.427Z,101049.63
2018-07-15T11:46:15.032Z,101055.64
2018-07-15T11:48:40.583Z,101058.19
2018-07-15T11:51:06.160Z,101039.65
2018-07-15T11:53:31.706Z,101042.51
2018-07-15T11:55:57.293Z,101037.77
2018-07-15T11:58:22.875Z,101042.95
2018-07-15T12:00:48.418Z,101031.81
2018-07-15T12:03:13.968Z,101030.55
2018-07-15T12:05:39.525Z,101023.36
2018-07-15T12:08:05.088Z,101023.98
2018-07-15T12:10:30.629Z,101018.80
2018-07-15T12:12:56.221Z,101015.05
2018-07-15T12:15:21.770Z,101008.66
2018-07-15T12:17:47.316Z,101002.73
2018-07-15T12:20:12.871Z,101007.00
2018-07-15T12:22:38.403Z,101003.75
2018-07-15T12:25:03.950Z,100999.01
2018-07-15T12:27:29.499Z,100997.72
2018-07-15T12:29:55.055Z,100995.48
2018-07-15T12:32:20.604Z,100981.56
2018-07-15T12:34:46.157Z,100992.77
2018-07-15T12:37:11.723Z,100988.00
2018-07-15T12:39:37.289Z,100988.86
2018-07-15T12:42:02.833Z,100995.38
2018-07-15T12:44:28.372Z,100986.88
2018-07-15T12:46:53.924Z,100990.09
2018-07-15T12:49:19.471Z,100986.58
2018-07-15T12:51:45.039Z,100980.02
2018-07-15T12:54:10.585Z,100978.45
2018-07-15T12:56:36.128Z,100975.70
2018-07-15T12:59:01.691Z,100976.20
2018-07-15T13:01:27.241Z,100982.16
2018-07-15T13:03:52.780Z,100969.16
2018-07-15T13:06:18.336Z,100972.09
2018-07-15T13:08:43.880Z,100961.27
2018-07-15T13:11:09.465Z,100961.35
2018-07-15T13:13:35.005Z,100956.91
2018-07-15T13:16:00.558Z,100947.05
2018-07-15T13:18:26.120Z,100951.23
2018-07-15T13:20:51.688Z,100948.08
2018-07-15T13:23:17.241Z,100939.41
2018-07-15T13:25:42.792Z,100937.45
2018-07-15T13:28:08.336Z,100937.23
2018-07-15T13:30:33.882Z,100942.09
2018-07-15T13:32:59.428Z,100937.63
2018-07-15T13:35:25.006Z,100932.13
2018-07-15T13:37:50.940Z,100934.73
2018-07-15T13:40:17.744Z,100932.63
2018-07-15T13:42:43.869Z,100930.12
2018-07-15T13:45:09.794Z,100931.77
2018-07-15T13:47:35.588Z,100935.37
2018-07-15T13:50:01.147Z,100928.52
2018-07-15T13:52:26.712Z,100932.92
2018-07-15T13:54:52.258Z,100923.15
2018-07-15T13:57:17.801Z,100920.41
2018-07-15T13:59:43.352Z,100919.28
2018-07-15T14:02:08.884Z,100917.85
2018-07-15T14:04:34.439Z,100914.93
2018-07-15T14:06:59.978Z,100911.83
2018-07-15T14:09:25.525Z,100908.98
2018-07-15T14:11:51.088Z,100906.75
2018-07-15T14:14:16.637Z,100905.31
2018-07-15T14:16:42.193Z,100895.18
2018-07-15T14:19:07.736Z,100893.13
2018-07-15T14:21:33.343Z,100898.82
2018-07-15T14:23:58.853Z,100894.67
2018-07-15T14:26:24.393Z,100897.56
2018-07-15T14:28:49.941Z,100900.84
2018-07-15T14:31:15.482Z,100894.27
2018-07-15T14:33:41.046Z,100885.59
2018-07-15T14:36:06.583Z,100882.05
2018-07-15T14:38:32.129Z,100876.25
2018-07-15T14:40:57.672Z,100869.77
2018-07-15T14:43:23.219Z,100871.38
2018-07-15T14:45:48.784Z,100873.55
2018-07-15T14:48:14.331Z,100867.19
2018-07-15T14:50:39.867Z,100863.41
2018-07-15T14:53:05.426Z,100855.47
2018-07-15T14:55:31.014Z,100848.46
2018-07-15T14:57:56.560Z,100846.56
2018-07-15T15:00:22.096Z,100843.36
2018-07-15T15:02:47.643Z,100847.47
2018-07-15T15:05:13.189Z,100843.50
2018-07-15T15:07:38.776Z,100843.97
2018-07-15T15:10:04.316Z,100838.98
2018-07-15T15:12:29.858Z,100830.67
2018-07-15T15:14:55.423Z,100836.91
2018-07-15T15:17:20.976Z,100835.05
2018-07-15T15:19:46.537Z,100830.55
2018-07-15T15:22:12.077Z,100833.77
2018-07-15T15:24:37.621Z,100826.77
2018-07-15T15:27:03.175Z,100824.05
2018-07-15T15:29:28.747Z,100828.45
2018-07-15T15:31:54.293Z,100829.23
2018-07-15T15:34:19.850Z,100825.41
2018-07-15T15:36:45.410Z,100828.69
2018-07-15T15:39:10.967Z,100824.66
2018-07-15T15:41:36.522Z,100822.08
2018-07-15T15:44:02.066Z,100831.55
2018-07-15T15:46:27.645Z,100825.02
2018-07-15T15:48:53.224Z,100820.74
2018-07-15T15:51:18.765Z,100817.44
2018-07-15T15:53:44.311Z,100810.06
2018-07-15T15:56:09.845Z,100808.20
2018-07-15T15:58:35.396Z,100807.02
2018-07-15T16:01:00.949Z,100803.48
2018-07-15T16:03:26.534Z,100802.05
2018-07-15T16:05:52.073Z,100793.48
2018-07-15T16:08:17.628Z,100790.80
2018-07-15T16:10:43.258Z,100794.89
2018-07-15T16:13:08.800Z,100790.13
2018-07-15T16:15:34.403Z,100786.91
2018-07-15T16:17:59.944Z,100787.56
2018-07-15T16:20:25.528Z,100788.25
2018-07-15T16:22:51.067Z,100786.95
2018-07-15T16:25:16.617Z,100788.45
2018-07-15T16:27:42.178Z,100778.44
2018-07-15T16:30:07.725Z,100778.88
2018-07-15T16:32:33.353Z,100779.94
2018-07-15T16:34:58.908Z,100781.93
2018-07-15T16:37:24.483Z,100778.10
2018-07-15T16:39:50.027Z,100783.13
2018-07-15T16:42:15.590Z,100773.41
2018-07-15T16:44:41.155Z,100772.06
2018-07-15T16:47:06.696Z,100773.55
2018-07-15T16:49:32.251Z,100773.44
2018-07-15T16:51:57.784Z,100777.11
2018-07-15T16:54:23.361Z,100776.33
2018-07-15T16:56:48.909Z,100773.13
2018-07-15T16:59:14.465Z,100781.59
2018-07-15T17:01:40.025Z,100779.44
2018-07-15T17:04:05.576Z,100780.26
2018-07-15T17:06:31.125Z,100780.86
2018-07-15T17:08:56.693Z,100778.22
2018-07-15T17:11:22.245Z,100777.48
2018-07-15T17:13:47.793Z,100766.37
2018-07-15T17:16:13.348Z,100766.52
2018-07-15T17:18:38.895Z,100766.11
2018-07-15T17:21:04.468Z,100768.83
2018-07-15T17:23:30.010Z,100768.72
2018-07-15T17:25:55.580Z,100767.53
2018-07-15T17:28:21.143Z,100762.26
2018-07-15T17:30:47.260Z,100760.27
2018-07-15T17:33:13.721Z,100761.05
2018-07-15T17:35:40.457Z,100755.98
2018-07-15T17:38:06.196Z,100752.07
2018-07-15T17:40:32.469Z,100748.63
2018-07-15T17:42:58.506Z,100751.37
2018-07-15T17:45:24.174Z,100748.04
2018-07-15T17:47:49.719Z,100751.86
2018-07-15T17:50:15.909Z,100753.62
2018-07-15T17:52:42.832Z,100753.03
2018-07-15T17:55:09.461Z,100752.55
2018-07-15T17:57:35.501Z,100750.33
2018-07-15T18:00:01.714Z,100750.42
2018-07-15T18:02:29.176Z,100747.52
2018-07-15T18:04:55.147Z,100751.51
2018-07-15T18:07:21.353Z,100742.01
2018-07-15T18:09:47.973Z,100745.06
2018-07-15T18:12:15.110Z,100747.99
2018-07-15T18:14:40.661Z,100752.30
2018-07-15T18:17:06.197Z,100743.59
2018-07-15T18:19:31.757Z,100743.41
2018-07-15T18:21:57.296Z,100750.27
2018-07-15T18:24:23.051Z,100741.81
2018-07-15T18:26:48.600Z,100746.78
2018-07-15T18:29:14.151Z,100750.95
2018-07-15T18:31:39.713Z,100751.69
2018-07-15T18:34:05.280Z,100757.18
2018-07-15T18:36:31.275Z,100757.42
2018-07-15T18:38:56.823Z,100760.83
2018-07-15T18:41:22.393Z,100755.61
2018-07-15T18:43:47.941Z,100759.39
2018-07-15T18:46:13.541Z,100763.41
2018-07-15T18:48:39.124Z,100760.29
2018-07-15T18:51:04.701Z,100762.75
2018-07-15T18:53:30.281Z,100764.97
2018-07-15T18:55:55.848Z,100765.14
2018-07-15T18:58:21.429Z,100770.11
2018-07-15T19:00:46.984Z,100775.51
2018-07-15T19:03:12.589Z,100779.15
2018-07-15T19:05:38.169Z,100782.23
2018-07-15T19:08:03.752Z,100781.41
2018-07-15T19:10:30.041Z,100783.40
2018-07-15T19:12:55.671Z,100785.27
2018-07-15T19:15:21.273Z,100790.02
2018-07-15T19:17:46.825Z,100793.73
2018-07-15T19:20:12.393Z,100798.59
2018-07-15T19:22:37.954Z,100800.83
2018-07-15T19:25:03.536Z,100801.59
2018-07-15T19:27:29.160Z,100800.50
2018-07-15T19:29:55.042Z,100803.31
2018-07-15T19:32:20.681Z,100807.41
2018-07-15T19:34:46.227Z,100811.03
2018-07-15T19:37:11.813Z,100811.52
2018-07-15T19:39:37.368Z,100818.56
2018-07-15T19:42:02.928Z,100814.67
2018-07-15T19:44:28.488Z,100815.51
2018-07-15T19:46:54.052Z,100817.23
2018-07-15T19:49:19.631Z,100822.41
2018-07-15T19:51:45.189Z,100830.58
2018-07-15T19:54:10.758Z,100825.73
2018-07-15T19:56:36.314Z,100830.04
2018-07-15T19:59:01.869Z,100830.81
2018-07-15T20:01:27.459Z,100837.23
2018-07-15T20:03:52.976Z,100843.16
2018-07-15T20:06:18.548Z,100847.36
2018-07-15T20:08:44.085Z,100844.20
2018-07-15T20:11:09.636Z,100847.98
2018-07-15T20:13:35.228Z,100846.61
2018-07-15T20:16:00.784Z,100842.53
2018-07-15T20:18:26.326Z,100855.44
2018-07-15T20:20:51.899Z,100855.72
2018-07-15T20:23:17.477Z,100858.54
2018-07-15T20:25:43.036Z,100854.92
2018-07-15T20:28:08.593Z,100855.98
2018-07-15T20:30:37.308Z,100850.59
2018-07-15T20:33:03.053Z,100856.08
2018-07-15T20:35:28.605Z,100856.42
2018-07-15T20:37:54.163Z,100857.61
2018-07-15T20:40:20.173Z,100859.58
2018-07-15T20:42:47.626Z,100866.88
2018-07-15T20:45:13.380Z,100866.31
2018-07-15T20:47:38.947Z,100859.23
2018-07-15T20:50:04.481Z,100862.62
2018-07-15T20:52:30.099Z,100865.95
2018-07-15T20:55:00.290Z,100865.84
2018-07-15T20:57:30.338Z,100879.94
2018-07-15T20:59:59.621Z,100876.69
2018-07-15T21:02:25.595Z,100874.81
2018-07-15T21:04:51.193Z,100881.97
2018-07-15T21:07:16.741Z,100880.63
2018-07-15T21:09:42.362Z,100884.28
2018-07-15T21:12:08.106Z,100883.61
2018-07-15T21:14:33.711Z,100886.73
2018-07-15T21:16:59.252Z,100887.77
2018-07-15T21:19:24.815Z,100886.39
2018-07-15T21:21:50.372Z,100895.38
2018-07-15T21:24:15.925Z,100893.90
2018-07-15T21:26:41.475Z,100892.03
2018-07-15T21:29:07.025Z,100894.69
2018-07-15T21:31:32.584Z,100897.13
2018-07-15T21:33:58.141Z,100899.58
2018-07-15T21:36:23.676Z,100892.44
2018-07-15T21:38:49.231Z,100890.95
2018-07-15T21:41:14.767Z,100897.31
2018-07-15T21:43:40.300Z,100895.39
2018-07-15T21:46:05.836Z,100893.43
2018-07-15T21:48:31.376Z,100898.81
2018-07-15T21:50:56.929Z,100892.78
2018-07-15T21:53:22.471Z,100893.82
2018-07-15T21:55:48.009Z,100894.83
2018-07-15T21:58:13.557Z,100892.02
2018-07-15T22:00:40.201Z,100895.72
2018-07-15T22:03:05.736Z,100892.00
2018-07-15T22:05:31.279Z,100897.12
2018-07-15T22:07:56.825Z,100896.94
2018-07-15T22:10:22.368Z,100899.86
2018-07-15T22:12:47.925Z,100900.98
2018-07-15T22:15:13.468Z,100899.20
2018-07-15T22:17:39.023Z,100900.36
2018-07-15T22:20:04.564Z,100898.78
2018-07-15T22:22:30.129Z,100904.61
2018-07-15T22:24:55.669Z,100900.58
2018-07-15T22:27:21.208Z,100904.27
2018-07-15T22:29:46.755Z,100902.42
2018-07-15T22:32:12.310Z,100902.23
2018-07-15T22:34:37.877Z,100903.08
2018-07-15T22:37:03.414Z,100903.76
2018-07-15T22:39:28.956Z,100897.17
2018-07-15T22:41:54.493Z,100899.45
2018-07-15T22:44:20.056Z,100895.95
2018-07-15T22:46:45.591Z,100899.31
2018-07-15T22:49:11.124Z,100899.17
2018-07-15T22:51:36.652Z,100898.05
2018-07-15T22:54:02.189Z,100901.48
2018-07-15T22:56:27.744Z,100898.58
2018-07-15T22:58:53.296Z,100897.72
2018-07-15T23:01:18.828Z,100896.78
2018-07-15T23:03:44.362Z,100897.78
2018-07-15T23:06:09.908Z,100900.66
2018-07-15T23:08:35.452Z,100901.75
2018-07-15T23:11:00.993Z,100897.67
2018-07-15T23:13:26.524Z,100897.53
2018-07-15T23:15:52.064Z,100896.75
2018-07-15T23:18:17.617Z,100890.10
2018-07-15T23:20:43.165Z,100894.95
2018-07-15T23:23:08.720Z,100891.03
2018-07-15T23:25:34.262Z,100897.77
2018-07-15T23:27:59.800Z,100897.48
2018-07-15T23:30:25.344Z,100894.46
2018-07-15T23:32:50.901Z,100903.36
2018-07-15T23:35:16.436Z,100901.55
2018-07-15T23:37:42.012Z,100904.39
2018-07-15T23:40:07.552Z,100898.70
2018-07-15T23:42:33.094Z,100899.05
2018-07-15T23:44:58.658Z,100900.69
2018-07-15T23:47:24.196Z,100910.03
2018-07-15T23:49:49.730Z,100909.03
2018-07-15T23:52:15.285Z,100906.94
2018-07-15T23:54:40.820Z,100901.02
2018-07-15T23:57:06.364Z,100903.66
2018-07-15T23:59:31.920Z,100905.65
